CheckWX is a tool to help pilots better visualize weather data.  It is not intended as a substitute for an official pre-flight weather briefing.

03:16:43 UTC

EPCE TAF
Cewice Military Airport
Lębork, Poland
TAF EPCE 180200Z 1803/1812 31013KT 9999 BKN025 PROB40 TEMPO 1803/1812 30016G26KT PROB30 TEMPO 1807/1812 8000 SHRA BKN016CB

Sep-18@
03:00 UTC

Sep-18 @ 03:00 UTC

Sep-18@
12:00 UTC

Sep-18 @ 12:00 UTC

TAF EPCE 180200Z 1803/1812 31013KT 9999 BKN025
Wind
  • 310° at 13 KTS
Cloud Levels
  • Broken at 2,500' AGL

Sep-18@
03:00 UTC

Sep-18 @ 03:00 UTC

Sep-18@
12:00 UTC

Sep-18 @ 12:00 UTC

PROB40 TEMPO 1803/1812 30016G26KT

Temporary - 40% Likelihood

Temporary - 40% Likelihood during this time.

Wind
  • 300° at 16 KTS
  • {Gusting to 26 KTS

Sep-18@
07:00 UTC

Sep-18 @ 07:00 UTC

Sep-18@
12:00 UTC

Sep-18 @ 12:00 UTC

PROB30 TEMPO 1807/1812 8000 SHRA BKN016CB

Temporary - 30% Likelihood

Temporary - 30% Likelihood during this time.

Conditions
Rain
Cloud Levels
  • Broken at 1,600' AGL